Goldston, North Carolina
Current Conditions -  °F | °C
As of 3:35 PM on Friday 28 Nov 2014 (Local Time) from K5W8 Reporting Station
Clear Clear  
Wind Chill: 42°   Ceiling: Unl
Heat Index: 42°   Visibility: 10mi
Dew Point: 18°   Wind: 3mph
Humidity: 39%   Direction: 230°SW
Pressure: 30.28"   Gusts: NA
Location:  35.59°N, 79.33°W
Report Text: K5W8 282035Z AUTO 23003KT 10SM CLR 06/M08 A3028 RMK AO2 T00561076
Loading
Personal Weather Stations






























Interactive Weather Map New forecast layout! Learn more

10-Day Weather Forecast

Advertisements
Track Severe Weather on mobile